Time;durP1;ratioP1;P1;durP2;ratioP2;P2;SDS_P1;SDS_P2;PMS_P1;PMS_P2;Temp;Humidity;BMP_temperature;BMP_pressure;BME280_temperature;BME280_humidity;BME280_pressure;Samples;Min_cycle;Max_cycle;Signal;HPM_P1;HPM_P2
2022/03/05 00:00:31;;;;;;;39.00;20.63;;;;;;;-0.54;79.69;101947.78;5013600;28;20034;-54
2022/03/05 00:02:57;;;;;;;34.38;19.55;;;;;;;-0.57;79.29;101959.09;5013216;28;20025;-55
2022/03/05 00:05:23;;;;;;;35.40;20.38;;;;;;;-0.61;79.70;101946.94;4995804;28;20454;-54
2022/03/05 00:07:48;;;;;;;35.42;21.20;;;;;;;-0.65;80.21;101948.38;5013063;28;20034;-56
2022/03/05 00:10:14;;;;;;;35.22;20.70;;;;;;;-0.66;79.91;101950.28;5012677;28;20041;-54
2022/03/05 00:12:39;;;;;;;35.92;20.80;;;;;;;-0.68;79.84;101949.63;5012645;28;20109;-52
2022/03/05 00:15:05;;;;;;;36.78;21.75;;;;;;;-0.71;80.00;101947.31;5012750;28;20478;-56
2022/03/05 00:17:31;;;;;;;38.13;22.52;;;;;;;-0.74;80.14;101953.16;5012817;28;20041;-55
2022/03/05 00:19:57;;;;;;;39.58;22.83;;;;;;;-0.79;80.74;101953.78;5013073;28;20037;-54
2022/03/05 00:22:22;;;;;;;37.72;21.20;;;;;;;-0.80;80.93;101948.53;5010847;28;20049;-55
2022/03/05 00:24:47;;;;;;;39.78;22.92;;;;;;;-0.81;80.65;101953.13;5004447;28;20030;-55
2022/03/05 00:27:12;;;;;;;37.33;21.40;;;;;;;-0.83;80.62;101949.78;4993057;28;20027;-55
2022/03/05 00:29:38;;;;;;;40.60;23.38;;;;;;;-0.86;80.96;101955.63;4993429;28;20497;-56
2022/03/05 00:32:03;;;;;;;36.30;21.10;;;;;;;-0.91;80.95;101947.25;4993067;28;20030;-54
2022/03/05 00:34:29;;;;;;;37.20;21.65;;;;;;;-0.90;80.97;101948.09;4992919;28;20038;-55
2022/03/05 00:36:54;;;;;;;38.70;21.52;;;;;;;-0.91;81.09;101946.41;4992639;28;20026;-56
2022/03/05 00:39:19;;;;;;;38.28;22.25;;;;;;;-0.92;81.02;101961.03;4993522;28;20537;-54
2022/03/05 00:41:45;;;;;;;38.03;21.88;;;;;;;-0.97;81.70;101961.63;4993156;28;20027;-53
2022/03/05 00:44:10;;;;;;;40.42;21.95;;;;;;;-1.00;81.74;101956.59;4993122;28;20027;-54
2022/03/05 00:46:35;;;;;;;42.75;22.20;;;;;;;-1.05;81.54;101945.50;4992827;28;20104;-53
2022/03/05 00:49:01;;;;;;;38.78;21.60;;;;;;;-1.07;81.61;101955.72;4993214;28;20038;-53
2022/03/05 00:51:26;;;;;;;38.85;22.27;;;;;;;-1.11;82.12;101950.69;4993563;28;20397;-54
2022/03/05 00:53:51;;;;;;;38.50;23.67;;;;;;;-1.15;82.59;101954.00;4998728;28;20062;-54
2022/03/05 00:56:17;;;;;;;40.15;23.00;;;;;;;-1.16;82.07;101953.19;5001171;28;20117;-52
2022/03/05 00:58:42;;;;;;;39.05;22.65;;;;;;;-1.22;82.66;101937.69;4992656;28;20035;-53
2022/03/05 01:01:07;;;;;;;39.40;22.17;;;;;;;-1.24;83.04;101953.34;4992494;28;20278;-55
2022/03/05 01:03:33;;;;;;;38.63;22.38;;;;;;;-1.27;82.76;101942.88;4992569;28;20085;-54
2022/03/05 01:05:58;;;;;;;40.65;22.55;;;;;;;-1.27;82.76;101943.69;4992893;28;20062;-53
2022/03/05 01:08:24;;;;;;;39.97;22.65;;;;;;;-1.29;83.08;101936.81;4993332;28;20561;-55
2022/03/05 01:10:49;;;;;;;34.90;21.40;;;;;;;-1.29;82.59;101948.53;4992673;28;20050;-55
2022/03/05 01:13:14;;;;;;;40.78;22.30;;;;;;;-1.29;82.08;101937.66;4992771;28;20035;-54
2022/03/05 01:15:39;;;;;;;40.22;23.27;;;;;;;-1.30;82.85;101940.56;4975166;28;20394;-55
2022/03/05 01:18:05;;;;;;;39.88;22.05;;;;;;;-1.32;82.63;101940.75;4992636;28;20030;-55
2022/03/05 01:20:30;;;;;;;38.92;22.02;;;;;;;-1.32;82.68;101942.66;4992565;28;20041;-54
2022/03/05 01:22:56;;;;;;;40.63;22.33;;;;;;;-1.35;83.10;101945.75;4992739;28;20027;-53
2022/03/05 01:25:21;;;;;;;41.50;23.15;;;;;;;-1.37;83.33;101934.25;4992733;28;20045;-54
2022/03/05 01:27:46;;;;;;;41.42;24.38;;;;;;;-1.42;83.01;101937.56;4992883;28;20038;-50
2022/03/05 01:30:12;;;;;;;41.20;23.05;;;;;;;-1.44;82.88;101934.19;4992355;28;20038;-54
2022/03/05 01:32:38;;;;;;;37.95;22.75;;;;;;;-1.48;83.61;101936.47;4992932;28;20379;-54
2022/03/05 01:35:04;;;;;;;42.17;23.20;;;;;;;-1.49;83.60;101934.81;4992655;28;20037;-53
2022/03/05 01:37:29;;;;;;;39.50;21.88;;;;;;;-1.50;84.08;101937.72;4993180;28;20030;-53
2022/03/05 01:39:54;;;;;;;40.22;22.40;;;;;;;-1.50;82.96;101927.69;4992752;28;20041;-54
2022/03/05 01:42:21;;;;;;;42.95;23.77;;;;;;;-1.54;84.13;101931.84;4993001;28;20041;-54
2022/03/05 01:44:46;;;;;;;39.47;22.25;;;;;;;-1.57;83.61;101933.09;4992338;28;20033;-54
2022/03/05 01:47:11;;;;;;;42.08;22.95;;;;;;;-1.60;83.72;101930.78;4994661;28;20030;-52
2022/03/05 01:49:37;;;;;;;40.67;23.13;;;;;;;-1.63;83.59;101931.16;4995938;28;20081;-56
2022/03/05 01:52:03;;;;;;;43.45;24.08;;;;;;;-1.64;83.57;101925.94;4996446;28;20034;-55
2022/03/05 01:54:29;;;;;;;41.90;22.73;;;;;;;-1.67;84.62;101937.19;4996097;28;20046;-54
2022/03/05 01:56:55;;;;;;;40.30;22.63;;;;;;;-1.69;84.06;101936.53;4996017;28;20027;-53
2022/03/05 01:59:21;;;;;;;42.38;22.98;;;;;;;-1.70;83.97;101938.41;4996185;28;20033;-54
2022/03/05 02:01:46;;;;;;;40.75;22.05;;;;;;;-1.71;84.29;101935.91;4995493;28;20034;-55
2022/03/05 02:04:12;;;;;;;39.55;22.20;;;;;;;-1.74;83.98;101935.25;4995797;28;20027;-55
2022/03/05 02:06:37;;;;;;;38.80;22.38;;;;;;;-1.75;84.26;101930.88;4995658;28;20038;-55
2022/03/05 02:09:03;;;;;;;40.40;22.40;;;;;;;-1.74;83.65;101935.25;4995802;28;20033;-56
2022/03/05 02:11:29;;;;;;;38.88;22.63;;;;;;;-1.76;84.09;101940.03;4995594;28;20105;-56
2022/03/05 02:13:54;;;;;;;42.60;23.30;;;;;;;-1.77;84.31;101943.78;4995955;28;20027;-56
2022/03/05 02:16:20;;;;;;;42.95;22.65;;;;;;;-1.78;84.31;101939.38;4995356;28;20114;-56
2022/03/05 02:18:51;;;;;;;42.45;22.00;;;;;;;-1.81;84.72;101944.38;4995288;28;20145;-56
2022/03/05 02:21:17;;;;;;;41.97;22.58;;;;;;;-1.84;84.91;101939.38;4996094;28;20030;-56
2022/03/05 02:23:43;;;;;;;39.70;22.50;;;;;;;-1.88;84.69;101938.88;4995741;28;20049;-55
2022/03/05 02:26:08;;;;;;;40.28;23.33;;;;;;;-1.93;84.86;101938.66;4995594;28;20149;-55
2022/03/05 02:28:35;;;;;;;40.85;23.15;;;;;;;-1.98;85.24;101931.09;4995172;28;20030;-54
2022/03/05 02:31:01;;;;;;;38.00;21.27;;;;;;;-1.99;85.55;101928.59;4995348;28;20030;-55
2022/03/05 02:33:26;;;;;;;41.75;23.08;;;;;;;-2.03;85.45;101930.81;4993832;28;20030;-54
2022/03/05 02:35:52;;;;;;;40.30;22.92;;;;;;;-2.04;85.36;101921.88;4995659;28;20030;-53
2022/03/05 02:38:19;;;;;;;42.25;22.65;;;;;;;-2.05;85.17;101925.63;4995193;28;20088;-54
2022/03/05 02:40:46;;;;;;;41.83;23.70;;;;;;;-2.09;85.93;101913.50;4995784;28;20037;-55
2022/03/05 02:43:11;;;;;;;38.65;22.52;;;;;;;-2.05;85.07;101928.31;4995811;28;20584;-55
2022/03/05 02:45:38;;;;;;;42.63;23.48;;;;;;;-2.10;85.89;101922.66;4994912;28;20108;-55
2022/03/05 02:48:06;;;;;;;40.58;23.52;;;;;;;-2.14;85.56;101931.38;4995076;28;20478;-54
2022/03/05 02:50:32;;;;;;;40.92;22.00;;;;;;;-2.17;85.83;101926.34;4995004;28;20517;-54
2022/03/05 02:52:58;;;;;;;41.53;22.95;;;;;;;-2.21;85.65;101924.00;4995144;28;20034;-54
2022/03/05 02:55:23;;;;;;;41.53;23.02;;;;;;;-2.22;85.68;101924.22;4995363;28;20027;-54
2022/03/05 02:57:49;;;;;;;40.83;22.88;;;;;;;-2.24;85.67;101924.41;4994021;28;20026;-54
2022/03/05 03:00:17;;;;;;;40.28;22.23;;;;;;;-2.25;85.86;101920.03;4994898;28;20054;-55
2022/03/05 03:02:46;;;;;;;38.28;21.17;;;;;;;-2.24;85.71;101918.13;4994489;28;20033;-52
2022/03/05 03:05:14;;;;;;;44.70;23.27;;;;;;;-2.26;85.57;101917.47;4994473;28;20185;-53
2022/03/05 03:07:41;;;;;;;41.47;22.38;;;;;;;-2.30;86.44;101913.50;4994490;28;20513;-54
2022/03/05 03:10:08;;;;;;;40.53;22.00;;;;;;;-2.33;86.60;101908.44;5009819;23;20109;-53
2022/03/05 03:12:33;;;;;;;41.67;23.55;;;;;;;-2.36;86.16;101912.41;5031462;28;20049;-55
2022/03/05 03:14:59;;;;;;;40.03;21.60;;;;;;;-2.41;86.36;101902.13;5032867;28;20079;-52
2022/03/05 03:17:24;;;;;;;40.55;22.23;;;;;;;-2.41;86.43;101910.28;5032754;28;20030;-55
2022/03/05 03:19:50;;;;;;;40.38;22.40;;;;;;;-2.46;86.96;101904.59;5032897;28;20045;-52
2022/03/05 03:22:15;;;;;;;43.20;22.85;;;;;;;-2.49;87.04;101902.25;5032856;28;20523;-52
2022/03/05 03:24:42;;;;;;;43.42;23.95;;;;;;;-2.54;87.64;101902.00;5032924;28;20033;-53
2022/03/05 03:27:07;;;;;;;41.45;23.48;;;;;;;-2.56;87.31;101904.06;5032927;28;20117;-53
2022/03/05 03:29:33;;;;;;;43.30;23.60;;;;;;;-2.59;87.38;101899.03;5033106;28;20061;-53
2022/03/05 03:31:58;;;;;;;43.08;22.88;;;;;;;-2.60;86.71;101906.34;5032620;28;20033;-53
2022/03/05 03:34:23;;;;;;;43.92;22.48;;;;;;;-2.62;87.39;101902.13;5032862;28;20033;-53
2022/03/05 03:36:49;;;;;;;42.53;23.08;;;;;;;-2.67;87.79;101905.41;5032747;28;20025;-53
2022/03/05 03:39:14;;;;;;;45.08;23.35;;;;;;;-2.67;87.72;101908.09;5015491;28;20120;-50
2022/03/05 03:41:39;;;;;;;44.42;23.63;;;;;;;-2.73;88.26;101908.88;5033059;28;20304;-53
2022/03/05 03:44:05;;;;;;;39.65;22.83;;;;;;;-2.76;88.24;101907.41;5033204;28;20034;-54
2022/03/05 03:46:30;;;;;;;41.10;22.85;;;;;;;-2.77;88.07;101907.56;5033442;28;20026;-54
2022/03/05 03:48:55;;;;;;;40.50;22.48;;;;;;;-2.79;87.72;101909.66;5032781;28;20029;-54
2022/03/05 03:51:21;;;;;;;43.13;22.80;;;;;;;-2.77;87.72;101918.41;5033033;28;20037;-54
2022/03/05 03:53:46;;;;;;;42.88;22.80;;;;;;;-2.78;88.00;101912.16;5033048;28;20036;-55
2022/03/05 03:56:12;;;;;;;43.15;23.40;;;;;;;-2.80;88.53;101914.22;5032652;28;20029;-54
2022/03/05 03:58:38;;;;;;;40.97;22.15;;;;;;;-2.82;88.15;101911.72;5032742;28;20025;-55
2022/03/05 04:01:03;;;;;;;42.00;23.17;;;;;;;-2.84;87.91;101913.75;5032400;28;20123;-55
2022/03/05 04:03:28;;;;;;;45.10;23.35;;;;;;;-2.85;88.67;101913.97;5032293;28;20030;-55
2022/03/05 04:05:53;;;;;;;47.03;24.00;;;;;;;-2.87;88.86;101914.13;5032392;28;20033;-55
2022/03/05 04:11:04;;;;;;;43.35;22.75;;;;;;;-2.94;88.54;101913.22;5032238;28;20056;-55
2022/03/05 04:13:29;;;;;;;44.60;22.65;;;;;;;-2.96;88.91;101917.16;5032115;28;20480;-55
2022/03/05 04:15:54;;;;;;;45.58;24.45;;;;;;;-2.99;88.89;101915.66;5032415;28;20108;-56
2022/03/05 04:18:19;;;;;;;41.00;22.73;;;;;;;-2.99;89.13;101919.22;5032343;28;20029;-54
2022/03/05 04:20:45;;;;;;;41.58;24.00;;;;;;;-3.01;89.19;101925.84;5014212;28;20300;-54
2022/03/05 04:23:10;;;;;;;44.00;24.10;;;;;;;-3.03;89.08;101928.75;5031829;28;20057;-55
2022/03/05 04:25:35;;;;;;;42.97;24.23;;;;;;;-3.06;88.95;101926.41;5032150;28;20125;-54
2022/03/05 04:28:01;;;;;;;41.28;23.15;;;;;;;-3.07;88.59;101930.16;5032040;28;20030;-53
2022/03/05 04:30:26;;;;;;;40.67;23.40;;;;;;;-3.07;89.12;101937.44;5031952;28;20033;-51
2022/03/05 04:32:51;;;;;;;45.88;23.42;;;;;;;-3.07;88.95;101927.44;5032501;28;20037;-53
2022/03/05 04:35:17;;;;;;;44.28;24.85;;;;;;;-3.08;89.08;101927.63;5032037;28;20121;-53
2022/03/05 04:37:42;;;;;;;44.33;25.05;;;;;;;-3.08;89.62;101923.03;5031712;28;20022;-52
2022/03/05 04:40:08;;;;;;;47.53;23.95;;;;;;;-3.09;89.36;101925.94;5031868;28;20074;-53
2022/03/05 04:42:34;;;;;;;43.08;23.55;;;;;;;-3.12;89.83;101932.59;5031860;28;20105;-53
2022/03/05 04:44:59;;;;;;;42.15;23.90;;;;;;;-3.14;89.66;101937.34;5032207;28;20112;-54
2022/03/05 04:47:25;;;;;;;45.33;26.00;;;;;;;-3.16;90.06;101936.69;5014095;28;20108;-52
2022/03/05 04:49:50;;;;;;;43.88;24.02;;;;;;;-3.19;90.62;101940.63;5014332;28;20040;-54
2022/03/05 04:52:16;;;;;;;45.83;25.05;;;;;;;-3.20;90.27;101944.34;5032345;28;20116;-54
2022/03/05 04:54:41;;;;;;;41.63;23.48;;;;;;;-3.22;89.77;101932.03;5032238;28;20032;-53
2022/03/05 04:57:06;;;;;;;41.40;23.15;;;;;;;-3.24;90.71;101934.91;5031439;28;20180;-54
2022/03/05 04:59:32;;;;;;;43.78;23.90;;;;;;;-3.23;90.34;101941.19;5014142;28;20424;-54
2022/03/05 05:01:58;;;;;;;47.25;23.95;;;;;;;-3.26;90.20;101939.69;5031800;28;20067;-52
2022/03/05 05:04:23;;;;;;;45.67;25.30;;;;;;;-3.28;89.97;101939.03;5031394;28;20129;-54
2022/03/05 05:06:49;;;;;;;46.22;25.67;;;;;;;-3.33;90.70;101938.72;5031391;28;20022;-55
2022/03/05 05:09:14;;;;;;;41.10;23.65;;;;;;;-3.36;90.78;101949.94;5031341;28;20021;-55
2022/03/05 05:11:40;;;;;;;46.72;24.42;;;;;;;-3.36;90.37;101952.66;5031773;28;20049;-58
2022/03/05 05:14:06;;;;;;;43.13;24.17;;;;;;;-3.40;90.05;101945.91;5031787;28;20029;-53
2022/03/05 05:16:31;;;;;;;44.55;24.63;;;;;;;-3.38;90.82;101954.69;5031438;28;20481;-54
2022/03/05 05:19:42;;;;;;;44.70;25.10;;;;;;;-3.39;90.30;101947.59;5031557;28;20026;-52
2022/03/05 05:21:42;;;;;;;44.17;24.98;;;;;;;-3.40;91.01;101951.34;5018666;28;20036;-51
2022/03/05 05:24:07;;;;;;;45.97;25.35;;;;;;;-3.42;91.52;101948.81;5035521;28;20021;-51
2022/03/05 05:26:33;;;;;;;46.75;24.50;;;;;;;-3.43;90.81;101957.97;5035344;28;20462;-51
2022/03/05 05:28:58;;;;;;;42.20;24.08;;;;;;;-3.45;90.83;101954.59;5035155;28;20029;-50
2022/03/05 05:31:24;;;;;;;45.67;25.30;;;;;;;-3.46;90.52;101956.47;5035221;28;20442;-51
2022/03/05 05:33:50;;;;;;;45.63;25.20;;;;;;;-3.45;91.13;101962.72;5035234;28;20024;-53
2022/03/05 05:36:15;;;;;;;43.20;22.92;;;;;;;-3.47;90.79;101968.31;5017652;28;20029;-54
2022/03/05 05:38:41;;;;;;;48.85;23.90;;;;;;;-3.50;91.64;101965.97;5035301;28;20396;-53
2022/03/05 05:41:07;;;;;;;45.28;24.80;;;;;;;-3.48;91.21;101969.34;5017805;28;20029;-53
2022/03/05 05:43:33;;;;;;;49.85;24.92;;;;;;;-3.49;91.71;101969.50;5035704;28;20028;-54
2022/03/05 05:45:58;;;;;;;49.78;25.40;;;;;;;-3.47;91.76;101978.28;5035355;28;20025;-51
2022/03/05 05:48:24;;;;;;;46.85;25.30;;;;;;;-3.50;91.24;101957.03;5035141;28;20033;-53
2022/03/05 05:50:49;;;;;;;46.85;25.48;;;;;;;-3.47;91.19;101973.72;5034490;28;20450;-53
2022/03/05 05:53:14;;;;;;;46.47;24.60;;;;;;;-3.46;91.14;101978.13;5034737;28;20036;-53
2022/03/05 05:55:39;;;;;;;44.33;24.40;;;;;;;-3.45;90.61;101970.81;5035163;28;20048;-54
2022/03/05 05:58:05;;;;;;;48.63;25.67;;;;;;;-3.49;91.27;101964.94;5034890;28;20022;-54
2022/03/05 06:00:30;;;;;;;48.72;24.48;;;;;;;-3.48;90.97;101960.38;5035032;28;20056;-53
2022/03/05 06:02:55;;;;;;;46.40;25.42;;;;;;;-3.46;91.24;101969.16;5034990;28;20035;-55
2022/03/05 06:05:20;;;;;;;46.60;24.10;;;;;;;-3.45;90.90;101974.34;5035109;28;20083;-54
2022/03/05 06:07:46;;;;;;;50.47;25.52;;;;;;;-3.45;91.42;101970.81;5034257;28;20044;-53
2022/03/05 06:10:11;;;;;;;49.60;26.38;;;;;;;-3.46;91.30;101970.00;5033879;28;20068;-53
2022/03/05 06:12:37;;;;;;;47.60;26.30;;;;;;;-3.45;91.44;101968.94;5034648;28;20025;-53
2022/03/05 06:15:04;;;;;;;47.80;24.80;;;;;;;-3.46;91.26;101967.28;5034599;28;20033;-51
2022/03/05 06:17:29;;;;;;;46.28;25.08;;;;;;;-3.44;92.17;101972.50;5034365;28;20112;-54
2022/03/05 06:19:55;;;;;;;47.75;25.23;;;;;;;-3.44;91.71;101967.09;5034687;28;20108;-53
2022/03/05 06:22:20;;;;;;;49.40;26.70;;;;;;;-3.45;91.11;101966.25;5034048;28;20096;-54
2022/03/05 06:24:46;;;;;;;50.53;27.33;;;;;;;-3.42;91.61;101975.03;5034140;28;20040;-52
2022/03/05 06:27:11;;;;;;;52.63;25.70;;;;;;;-3.40;91.13;101973.81;5034445;28;20032;-53
2022/03/05 06:29:36;;;;;;;50.67;25.17;;;;;;;-3.39;91.38;101980.91;5033684;28;20469;-52
2022/03/05 06:32:02;;;;;;;53.90;27.35;;;;;;;-3.36;91.19;101977.00;5033939;28;20037;-50
2022/03/05 06:34:27;;;;;;;46.80;25.48;;;;;;;-3.35;90.99;101971.41;5034538;28;20029;-52
2022/03/05 06:36:57;;;;;;;51.53;25.33;;;;;;;-3.35;90.94;101974.09;5033569;28;20029;-52
2022/03/05 06:39:22;;;;;;;50.63;24.58;;;;;;;-3.32;90.79;101967.47;5033971;28;20029;-56
2022/03/05 06:41:47;;;;;;;51.50;25.52;;;;;;;-3.31;90.52;101972.72;5033798;28;20361;-54
2022/03/05 06:44:13;;;;;;;48.90;24.55;;;;;;;-3.30;90.77;101977.09;5033782;28;20033;-54
2022/03/05 06:46:38;;;;;;;49.17;24.67;;;;;;;-3.26;90.50;101976.72;5033499;28;20025;-54
2022/03/05 06:49:03;;;;;;;47.30;25.00;;;;;;;-3.25;90.74;101976.53;5033672;28;20033;-53
2022/03/05 06:51:28;;;;;;;50.22;23.85;;;;;;;-3.22;90.88;101987.00;5034272;28;20041;-54
2022/03/05 06:53:54;;;;;;;46.92;23.92;;;;;;;-3.17;90.65;101984.59;5034002;28;20083;-53
2022/03/05 06:56:19;;;;;;;49.30;26.02;;;;;;;-3.15;91.04;101982.50;5016464;28;20096;-54
2022/03/05 06:58:44;;;;;;;51.90;27.45;;;;;;;-3.12;90.78;101989.44;5034529;28;20080;-54
2022/03/05 07:01:10;;;;;;;47.70;24.10;;;;;;;-3.10;91.24;101981.13;5034593;28;20032;-55
2022/03/05 07:03:36;;;;;;;52.28;24.83;;;;;;;-3.07;91.10;101986.16;5034819;28;20043;-54
2022/03/05 07:06:02;;;;;;;49.60;24.95;;;;;;;-3.02;90.91;101991.84;5034054;28;20017;-54
2022/03/05 07:08:27;;;;;;;47.53;23.67;;;;;;;-2.98;90.89;102004.00;5034092;28;20492;-54
2022/03/05 07:10:52;;;;;;;47.90;23.95;;;;;;;-2.93;89.96;102001.56;5034252;28;20052;-55
2022/03/05 07:13:18;;;;;;;48.08;24.55;;;;;;;-2.89;90.22;102005.59;5034456;28;20119;-55
2022/03/05 07:15:43;;;;;;;48.88;25.42;;;;;;;-2.83;90.43;102007.53;5034305;28;20036;-54
2022/03/05 07:18:08;;;;;;;48.35;24.40;;;;;;;-2.79;89.96;102009.88;5034421;28;20033;-54
2022/03/05 07:20:34;;;;;;;52.88;25.27;;;;;;;-2.74;90.21;102010.97;5022221;28;20459;-55
2022/03/05 07:22:59;;;;;;;48.85;24.13;;;;;;;-2.69;90.21;102010.41;5011870;28;20038;-53
2022/03/05 07:25:24;;;;;;;53.53;26.63;;;;;;;-2.64;89.96;102009.84;5012460;28;20037;-54
2022/03/05 07:27:50;;;;;;;47.22;25.23;;;;;;;-2.63;89.39;102012.38;5011926;28;20033;-55
2022/03/05 07:30:15;;;;;;;50.13;25.35;;;;;;;-2.53;89.26;102017.47;5012014;28;20161;-53
2022/03/05 07:32:40;;;;;;;53.80;25.13;;;;;;;-2.48;89.50;102014.19;5011819;28;20429;-52
2022/03/05 07:35:06;;;;;;;52.30;24.95;;;;;;;-2.44;89.39;102013.63;5011735;28;20030;-54
2022/03/05 07:37:32;;;;;;;50.97;23.90;;;;;;;-2.40;89.46;102005.94;5011435;28;20125;-53
2022/03/05 07:39:58;;;;;;;52.25;24.33;;;;;;;-2.31;89.50;102014.81;5009857;28;20030;-53
2022/03/05 07:42:23;;;;;;;50.15;24.52;;;;;;;-2.24;88.59;102011.16;5011983;28;20100;-53
2022/03/05 07:44:48;;;;;;;47.15;26.10;;;;;;;-2.18;88.62;102012.28;5011126;28;20104;-54
2022/03/05 07:47:15;;;;;;;47.35;24.17;;;;;;;-2.12;89.23;102016.06;5011336;28;20180;-55
2022/03/05 07:49:40;;;;;;;44.38;24.42;;;;;;;-2.09;88.43;102013.81;5011569;28;20026;-56
2022/03/05 07:52:05;;;;;;;44.88;24.17;;;;;;;-2.01;88.27;102012.84;5011555;28;20127;-55
2022/03/05 07:54:31;;;;;;;51.35;25.30;;;;;;;-1.94;88.06;102010.19;4993318;28;20486;-54
2022/03/05 07:56:56;;;;;;;48.55;24.25;;;;;;;-1.85;87.65;102011.75;5011215;28;20044;-54
2022/03/05 07:59:22;;;;;;;47.33;23.75;;;;;;;-1.80;87.69;102017.44;5011387;28;20026;-55
2022/03/05 08:01:47;;;;;;;46.15;25.20;;;;;;;-1.73;87.16;102017.47;5011282;28;20045;-55
2022/03/05 08:04:13;;;;;;;50.80;25.55;;;;;;;-1.68;87.17;102025.91;5011094;28;20378;-55
2022/03/05 08:06:38;;;;;;;47.60;23.48;;;;;;;-1.60;87.11;102028.47;5010996;28;20033;-54
2022/03/05 08:09:03;;;;;;;49.55;25.23;;;;;;;-1.55;87.07;102029.75;5010981;28;20100;-55
2022/03/05 08:11:29;;;;;;;49.97;25.17;;;;;;;-1.46;86.61;102039.41;5010782;28;20088;-55
2022/03/05 08:13:54;;;;;;;49.00;24.70;;;;;;;-1.40;86.56;102044.09;5009480;28;20470;-56
2022/03/05 08:16:19;;;;;;;47.88;25.67;;;;;;;-1.33;86.61;102036.81;5010728;28;20034;-55
2022/03/05 08:18:44;;;;;;;45.28;23.75;;;;;;;-1.26;86.12;102039.59;5011102;28;20021;-55
2022/03/05 08:21:10;;;;;;;47.13;24.95;;;;;;;-1.18;85.95;102039.44;5010866;28;20030;-55
2022/03/05 08:23:35;;;;;;;47.83;23.73;;;;;;;-1.10;85.31;102036.56;4993188;28;20049;-54
2022/03/05 08:26:01;;;;;;;47.78;24.65;;;;;;;-1.02;85.38;102034.72;5011173;28;20056;-55
2022/03/05 08:28:26;;;;;;;46.80;24.63;;;;;;;-0.98;84.93;102036.84;5011231;28;20099;-55
2022/03/05 08:30:51;;;;;;;47.03;23.95;;;;;;;-0.91;84.73;102044.22;5010990;28;20104;-55
2022/03/05 08:33:17;;;;;;;50.05;26.30;;;;;;;-0.85;85.05;102037.97;5011120;28;20351;-55
2022/03/05 08:35:43;;;;;;;46.78;25.08;;;;;;;-0.79;84.29;102046.16;5010997;28;20030;-56
2022/03/05 08:38:08;;;;;;;43.90;23.73;;;;;;;-0.70;84.51;102044.09;5010737;28;20099;-55
2022/03/05 08:40:33;;;;;;;49.92;25.17;;;;;;;-0.63;83.83;102042.28;5009416;28;20034;-55
2022/03/05 08:42:59;;;;;;;49.67;24.55;;;;;;;-0.57;83.07;102046.09;5010989;28;20115;-56
2022/03/05 08:45:24;;;;;;;47.15;24.40;;;;;;;-0.50;83.45;102043.38;5010697;28;20026;-54
2022/03/05 08:47:49;;;;;;;46.38;23.83;;;;;;;-0.46;82.86;102039.22;5010694;28;20030;-53
2022/03/05 08:50:15;;;;;;;48.03;24.70;;;;;;;-0.37;82.68;102042.56;5010693;28;20029;-55
2022/03/05 08:52:41;;;;;;;46.10;24.15;;;;;;;-0.30;82.60;102038.03;4993162;28;20033;-53
2022/03/05 08:55:08;;;;;;;49.40;25.02;;;;;;;-0.30;82.40;102029.88;5010889;28;20061;-54
2022/03/05 08:57:34;;;;;;;46.55;23.73;;;;;;;-0.13;82.02;102038.47;5010011;28;20022;-55
2022/03/05 08:59:59;;;;;;;45.90;23.70;;;;;;;-0.06;81.78;102044.78;5010901;28;20030;-54
2022/03/05 09:02:25;;;;;;;49.60;25.27;;;;;;;-0.05;81.22;102035.56;5010923;28;20101;-53
2022/03/05 09:04:52;;;;;;;49.10;24.65;;;;;;;0.05;81.63;102029.75;5020146;28;20037;-55
2022/03/05 09:07:17;;;;;;;45.88;24.50;;;;;;;0.17;81.12;102032.69;5030602;28;20046;-55
2022/03/05 09:09:43;;;;;;;49.17;23.77;;;;;;;0.25;80.64;102031.66;5030693;28;20495;-53
2022/03/05 09:12:09;;;;;;;47.55;25.08;;;;;;;0.37;81.07;102034.59;5012571;28;20049;-54
2022/03/05 09:14:34;;;;;;;49.95;24.33;;;;;;;0.47;80.30;102033.13;5029193;28;20037;-55
2022/03/05 09:16:59;;;;;;;50.75;24.40;;;;;;;0.57;80.06;102026.41;5030163;28;20029;-54
2022/03/05 09:19:25;;;;;;;48.70;25.52;;;;;;;0.59;78.94;102027.91;5030515;28;20060;-54
2022/03/05 09:21:50;;;;;;;43.75;24.88;;;;;;;0.67;79.27;102026.84;5030482;28;20053;-55
2022/03/05 09:24:15;;;;;;;47.15;24.98;;;;;;;0.75;79.05;102032.09;5030497;28;20053;-55
2022/03/05 09:26:40;;;;;;;46.65;24.80;;;;;;;0.89;79.03;102026.59;5030187;28;20143;-54
2022/03/05 09:29:06;;;;;;;46.95;23.90;;;;;;;0.99;78.41;102016.13;5030242;28;20128;-52
2022/03/05 09:31:31;;;;;;;44.75;23.63;;;;;;;1.10;77.79;102022.78;5030081;28;20393;-55
2022/03/05 09:33:57;;;;;;;47.15;25.20;;;;;;;1.20;77.36;102030.53;5029585;28;20042;-57
2022/03/05 09:36:22;;;;;;;47.17;23.60;;;;;;;1.22;77.14;102021.09;5029913;28;20543;-59
2022/03/05 09:38:48;;;;;;;45.90;24.63;;;;;;;1.31;76.84;102010.78;5027899;28;20029;-54
2022/03/05 09:41:13;;;;;;;48.88;24.40;;;;;;;1.35;77.11;102003.84;5030020;28;20057;-56
2022/03/05 09:43:39;;;;;;;45.35;24.98;;;;;;;1.40;76.35;102000.47;5029903;28;20550;-57
2022/03/05 09:46:04;;;;;;;46.80;23.90;;;;;;;1.55;76.35;102024.75;5029897;28;20521;-56
2022/03/05 09:48:30;;;;;;;45.40;24.55;;;;;;;1.64;76.23;102026.16;5029869;28;20116;-57
2022/03/05 09:50:57;;;;;;;44.55;23.25;;;;;;;1.71;74.98;102029.69;5029967;28;20030;-56
2022/03/05 09:53:30;;;;;;;47.92;23.58;;;;;;;1.78;74.91;102023.38;5029924;28;20128;-57
2022/03/05 09:55:55;;;;;;;44.78;23.58;;;;;;;1.87;75.63;102024.81;5029760;28;20508;-57
2022/03/05 09:58:20;;;;;;;47.90;25.00;;;;;;;1.96;74.50;102020.75;5030049;28;20351;-57
2022/03/05 10:00:46;;;;;;;46.03;25.40;;;;;;;2.02;74.34;102022.59;5029271;28;20469;-56
2022/03/05 10:03:12;;;;;;;46.67;25.33;;;;;;;2.12;74.65;102022.13;5029340;28;20034;-57
2022/03/05 10:05:38;;;;;;;46.63;26.02;;;;;;;2.22;73.04;102021.63;5029380;28;20033;-61
2022/03/05 10:08:09;;;;;;;50.00;26.33;;;;;;;2.21;72.06;102013.69;5031067;28;20033;-57
2022/03/05 10:10:52;;;;;;;45.15;26.25;;;;;;;2.37;73.45;102028.66;5014630;28;20091;-58
2022/03/05 10:13:23;;;;;;;49.35;25.63;;;;;;;2.36;72.94;102003.25;5031877;28;20061;-57
2022/03/05 10:15:51;;;;;;;47.13;27.40;;;;;;;2.41;72.62;102008.88;5032576;28;20026;-57
2022/03/05 10:18:17;;;;;;;47.75;26.08;;;;;;;2.57;72.84;102021.13;5030166;28;20045;-57
2022/03/05 10:20:45;;;;;;;48.38;26.10;;;;;;;2.68;71.92;102024.22;5031973;28;20033;-58
2022/03/05 10:23:11;;;;;;;47.38;26.90;;;;;;;2.73;71.38;102017.00;5032586;28;20496;-57
2022/03/05 10:25:43;;;;;;;46.75;27.00;;;;;;;2.66;71.12;102005.31;5032324;28;20338;-56
2022/03/05 10:28:11;;;;;;;44.20;25.60;;;;;;;2.78;70.25;102024.53;5032090;28;20465;-58
2022/03/05 10:30:42;;;;;;;47.13;27.25;;;;;;;2.74;70.15;101999.56;5031925;28;20087;-57
2022/03/05 10:33:08;;;;;;;46.85;26.15;;;;;;;2.94;70.34;102023.94;5032367;28;20036;-56
2022/03/05 10:35:35;;;;;;;48.92;27.75;;;;;;;2.96;68.70;102023.75;5032418;28;20036;-57
2022/03/05 10:38:00;;;;;;;46.15;25.77;;;;;;;3.03;70.34;102023.66;5032260;28;20025;-56
2022/03/05 10:40:34;;;;;;;44.72;26.33;;;;;;;3.15;70.15;102027.31;5030422;28;20021;-57
2022/03/05 10:43:02;;;;;;;48.30;26.60;;;;;;;3.15;69.04;101993.69;5032317;28;20075;-59
2022/03/05 10:45:29;;;;;;;46.10;24.65;;;;;;;3.35;68.97;102015.31;5032586;28;20033;-55
2022/03/05 10:47:56;;;;;;;45.38;25.27;;;;;;;3.47;68.47;102023.59;5033123;28;20099;-57
2022/03/05 10:50:25;;;;;;;43.67;25.17;;;;;;;3.53;67.49;102019.94;5032964;28;20021;-57
2022/03/05 10:52:54;;;;;;;45.38;25.75;;;;;;;3.52;66.32;102013.63;5032843;28;20112;-56
2022/03/05 10:55:21;;;;;;;44.60;24.73;;;;;;;3.61;66.38;102029.72;5014352;28;20025;-58
2022/03/05 10:58:02;;;;;;;42.17;24.73;;;;;;;3.68;66.42;102019.56;5031259;28;20105;-58
2022/03/05 11:00:29;;;;;;;44.00;23.40;;;;;;;3.59;65.89;101997.13;5031462;28;20029;-57
2022/03/05 11:02:57;;;;;;;43.67;23.92;;;;;;;3.85;66.13;102012.38;5032594;28;20033;-56
2022/03/05 11:05:23;;;;;;;44.08;24.23;;;;;;;3.93;63.92;102013.09;5014730;28;20420;-57
2022/03/05 11:07:49;;;;;;;44.92;25.17;;;;;;;3.96;64.20;102018.94;5032050;28;20562;-55